Time;durP1;ratioP1;P1;durP2;ratioP2;P2;SDS_P1;SDS_P2;PMS_P1;PMS_P2;Temp;Humidity;BMP_temperature;BMP_pressure;BME280_temperature;BME280_humidity;BME280_pressure;Samples;Min_cycle;Max_cycle;Signal;HPM_P1;HPM_P2
2023/07/26 00:02:21;;;;;;;3.65;1.80;;;20.60;92.30;;;;;;5074561;28;20571;-73
2023/07/26 00:04:47;;;;;;;5.82;1.80;;;20.50;92.30;;;;;;5092744;28;20103;-73
2023/07/26 00:07:13;;;;;;;4.68;1.40;;;20.50;92.20;;;;;;5092803;28;20020;-73
2023/07/26 00:09:39;;;;;;;4.05;1.60;;;20.50;92.50;;;;;;5092522;28;20093;-73
2023/07/26 00:12:05;;;;;;;6.30;1.45;;;20.40;92.50;;;;;;5092573;28;20043;-73
2023/07/26 00:14:30;;;;;;;4.97;1.58;;;20.40;92.40;;;;;;5092851;28;20021;-73
2023/07/26 00:16:56;;;;;;;3.97;1.75;;;20.40;92.60;;;;;;5092655;28;20034;-73
2023/07/26 00:19:23;;;;;;;8.52;1.75;;;20.40;92.80;;;;;;5095842;28;20024;-73
2023/07/26 00:21:49;;;;;;;7.78;1.70;;;20.40;92.80;;;;;;5096438;28;20020;-73
2023/07/26 00:24:15;;;;;;;4.50;1.50;;;20.40;93.10;;;;;;5096698;28;20107;-73
2023/07/26 00:26:41;;;;;;;4.85;1.63;;;20.40;92.90;;;;;;5078565;28;20123;-73
2023/07/26 00:29:07;;;;;;;2.22;1.23;;;20.40;92.50;;;;;;5096352;28;20012;-73
2023/07/26 00:31:33;;;;;;;3.70;1.10;;;20.40;92.00;;;;;;5096264;28;20082;-73
2023/07/26 00:33:58;;;;;;;2.33;1.10;;;20.40;91.30;;;;;;5096210;28;20043;-73
2023/07/26 00:36:24;;;;;;;1.52;0.95;;;20.40;91.40;;;;;;5096394;28;20103;-74
2023/07/26 00:38:50;;;;;;;3.33;1.13;;;20.40;91.80;;;;;;5096507;28;20031;-73
2023/07/26 00:41:16;;;;;;;1.85;1.13;;;20.40;92.20;;;;;;5095701;28;20060;-73
2023/07/26 00:43:42;;;;;;;4.63;1.20;;;20.40;92.20;;;;;;5096266;28;20056;-73
2023/07/26 00:46:08;;;;;;;5.22;1.50;;;20.30;92.50;;;;;;5096044;28;20096;-73
2023/07/26 00:48:34;;;;;;;3.00;1.30;;;20.40;93.10;;;;;;5096238;28;20027;-74
2023/07/26 00:51:01;;;;;;;3.33;1.40;;;20.40;92.80;;;;;;5095593;28;20028;-73
2023/07/26 00:53:28;;;;;;;3.17;1.42;;;20.40;92.90;;;;;;5096132;28;20081;-73
2023/07/26 00:55:54;;;;;;;2.47;1.38;;;20.40;92.90;;;;;;5095841;28;20077;-73
2023/07/26 00:58:20;;;;;;;4.85;1.33;;;20.40;93.00;;;;;;5093880;28;20043;-73
2023/07/26 01:00:47;;;;;;;2.22;1.33;;;20.40;92.80;;;;;;5093182;28;20273;-73
2023/07/26 01:03:13;;;;;;;2.78;1.30;;;20.40;92.60;;;;;;5093087;28;20531;-74
2023/07/26 01:05:49;;;;;;;5.45;1.33;;;20.40;92.80;;;;;;5095005;28;20418;-74
2023/07/26 01:08:27;;;;;;;3.78;1.77;;;20.40;93.20;;;;;;5095761;28;20493;-74
2023/07/26 01:10:58;;;;;;;2.55;1.17;;;20.40;93.20;;;;;;5095396;28;20069;-73
2023/07/26 01:13:43;;;;;;;2.80;1.08;;;20.40;93.20;;;;;;5095414;28;20024;-73
2023/07/26 01:16:09;;;;;;;3.13;1.42;;;20.40;93.40;;;;;;5095439;28;20098;-73
2023/07/26 01:18:36;;;;;;;2.45;1.17;;;20.40;93.20;;;;;;5095614;28;20549;-74
2023/07/26 01:21:02;;;;;;;1.45;0.90;;;20.40;92.50;;;;;;5094988;28;20020;-73
2023/07/26 01:23:28;;;;;;;1.08;0.82;;;20.40;91.30;;;;;;5095372;28;20162;-73
2023/07/26 01:25:53;;;;;;;1.58;0.80;;;20.30;91.20;;;;;;5095395;28;20020;-73
2023/07/26 01:28:19;;;;;;;1.42;0.90;;;20.30;91.50;;;;;;5095128;28;20035;-73
2023/07/26 01:30:46;;;;;;;3.08;1.08;;;20.30;91.30;;;;;;5094576;28;20028;-74
2023/07/26 01:33:13;;;;;;;3.58;1.00;;;20.30;91.40;;;;;;5076859;28;20374;-74
2023/07/26 01:35:40;;;;;;;3.83;1.20;;;20.20;91.70;;;;;;5095177;28;20024;-74
2023/07/26 01:38:07;;;;;;;3.45;0.90;;;20.20;91.50;;;;;;5095234;28;20456;-73
2023/07/26 01:40:33;;;;;;;5.25;1.48;;;20.20;91.50;;;;;;5094861;28;20095;-73
2023/07/26 01:42:59;;;;;;;1.60;0.90;;;20.20;91.60;;;;;;5094239;28;20047;-73
2023/07/26 01:45:25;;;;;;;3.05;1.20;;;20.20;91.80;;;;;;5094515;28;20036;-74
2023/07/26 01:47:52;;;;;;;2.65;1.00;;;20.20;92.20;;;;;;5094605;28;20024;-73
2023/07/26 01:50:18;;;;;;;4.70;1.10;;;20.20;92.00;;;;;;5076458;28;20054;-74
2023/07/26 01:52:44;;;;;;;3.33;1.08;;;20.20;92.20;;;;;;5094965;28;20028;-74
2023/07/26 01:55:10;;;;;;;2.25;1.10;;;20.10;92.40;;;;;;5094787;28;20032;-73
2023/07/26 01:57:35;;;;;;;2.90;1.10;;;20.20;92.10;;;;;;5094844;28;20057;-73
2023/07/26 02:00:01;;;;;;;3.30;1.27;;;20.20;91.80;;;;;;5094696;28;20024;-72
2023/07/26 02:02:27;;;;;;;3.45;1.05;;;20.20;91.60;;;;;;5094312;28;20036;-74
2023/07/26 02:04:52;;;;;;;2.15;0.95;;;20.10;91.70;;;;;;5094482;28;20020;-74
2023/07/26 02:07:19;;;;;;;4.70;1.10;;;20.10;91.80;;;;;;5094369;28;20043;-74
2023/07/26 02:09:44;;;;;;;2.88;1.10;;;20.10;91.80;;;;;;5094340;28;20015;-73
2023/07/26 02:12:10;;;;;;;2.08;1.08;;;20.10;91.50;;;;;;5094514;28;20036;-73
2023/07/26 02:14:36;;;;;;;1.70;0.98;;;20.10;90.60;;;;;;5094420;28;20027;-73
2023/07/26 02:17:01;;;;;;;1.10;0.93;;;20.20;90.70;;;;;;5094099;28;20059;-73
2023/07/26 02:19:27;;;;;;;1.70;1.00;;;20.20;90.70;;;;;;5094170;28;20016;-73
2023/07/26 02:21:53;;;;;;;2.05;1.20;;;20.20;90.80;;;;;;5094465;28;20059;-73
2023/07/26 02:24:18;;;;;;;1.08;0.80;;;20.10;90.50;;;;;;5094168;28;20020;-73
2023/07/26 02:26:44;;;;;;;1.30;0.80;;;20.10;90.40;;;;;;5094253;28;20024;-73
2023/07/26 02:29:10;;;;;;;1.83;0.90;;;20.10;89.90;;;;;;5094129;28;20020;-74
2023/07/26 02:31:36;;;;;;;3.05;0.85;;;20.00;90.50;;;;;;5094318;28;20044;-74
2023/07/26 02:34:02;;;;;;;4.03;0.80;;;20.00;90.30;;;;;;5093765;28;20016;-73
2023/07/26 02:36:27;;;;;;;4.22;0.93;;;20.00;90.40;;;;;;5094071;28;20027;-74
2023/07/26 02:38:53;;;;;;;1.40;0.90;;;20.00;90.70;;;;;;5094126;28;20020;-74
2023/07/26 02:41:19;;;;;;;1.48;1.00;;;19.90;91.10;;;;;;5092671;28;20074;-73
2023/07/26 02:43:44;;;;;;;3.05;1.00;;;19.90;91.00;;;;;;5093525;28;20015;-74
2023/07/26 02:46:10;;;;;;;1.00;0.80;;;19.90;90.90;;;;;;5093532;28;20031;-74
2023/07/26 02:48:36;;;;;;;1.17;0.80;;;19.80;90.40;;;;;;5093506;28;20020;-73
2023/07/26 02:51:02;;;;;;;1.30;0.90;;;19.80;90.70;;;;;;5075591;28;20485;-74
2023/07/26 02:53:28;;;;;;;1.70;1.00;;;19.90;90.70;;;;;;5094303;28;20027;-74
2023/07/26 02:55:54;;;;;;;1.13;0.90;;;19.90;91.30;;;;;;5094227;28;20035;-72
2023/07/26 02:58:19;;;;;;;1.23;0.90;;;19.90;91.40;;;;;;5093626;28;20035;-74
2023/07/26 03:00:45;;;;;;;3.67;0.93;;;20.00;91.10;;;;;;5093356;28;20028;-73
2023/07/26 03:03:11;;;;;;;2.47;1.17;;;19.90;91.10;;;;;;5093300;28;20470;-73
2023/07/26 03:05:37;;;;;;;4.47;1.00;;;19.90;90.90;;;;;;5093363;28;20035;-73
2023/07/26 03:08:03;;;;;;;1.33;0.80;;;20.00;90.40;;;;;;5093466;28;20474;-73
2023/07/26 03:10:29;;;;;;;3.00;1.10;;;20.00;90.60;;;;;;5093312;28;20039;-73
2023/07/26 03:12:55;;;;;;;2.33;0.93;;;19.90;90.80;;;;;;5093091;28;20058;-74
2023/07/26 03:15:22;;;;;;;2.92;0.90;;;20.00;90.60;;;;;;5093415;28;20024;-73
2023/07/26 03:17:48;;;;;;;3.72;0.98;;;19.90;90.80;;;;;;5093276;28;20119;-73
2023/07/26 03:20:13;;;;;;;2.67;1.02;;;19.90;90.80;;;;;;5092850;28;20043;-73
2023/07/26 03:22:39;;;;;;;1.25;0.70;;;19.90;90.90;;;;;;5092495;28;20046;-73
2023/07/26 03:25:05;;;;;;;3.47;1.13;;;19.80;90.30;;;;;;5084531;28;20048;-73
2023/07/26 03:27:31;;;;;;;1.80;0.88;;;19.80;90.50;;;;;;5072929;28;20498;-73
2023/07/26 03:29:57;;;;;;;2.25;0.90;;;19.80;91.30;;;;;;5054791;28;20028;-73
2023/07/26 03:32:23;;;;;;;0.85;0.75;;;19.70;91.30;;;;;;5072451;28;20131;-73
2023/07/26 03:34:48;;;;;;;1.90;0.77;;;19.70;90.80;;;;;;5072446;28;20024;-73
2023/07/26 03:37:15;;;;;;;4.70;0.88;;;19.70;90.80;;;;;;5072415;28;20021;-73
2023/07/26 03:39:40;;;;;;;6.13;1.05;;;19.60;91.00;;;;;;5072387;28;20498;-73
2023/07/26 03:42:07;;;;;;;1.75;0.85;;;19.60;91.20;;;;;;5072215;28;20595;-73
2023/07/26 03:44:33;;;;;;;2.13;0.85;;;19.60;91.30;;;;;;5072367;28;20017;-73
2023/07/26 03:46:58;;;;;;;2.50;1.10;;;19.60;91.40;;;;;;5071974;28;20035;-73
2023/07/26 03:49:24;;;;;;;1.58;0.70;;;19.60;91.50;;;;;;5072191;28;20021;-73
2023/07/26 03:51:50;;;;;;;3.75;0.80;;;19.50;91.50;;;;;;5072663;28;20024;-73
2023/07/26 03:54:16;;;;;;;1.88;0.88;;;19.50;92.00;;;;;;5072297;28;20021;-72
2023/07/26 03:56:42;;;;;;;2.50;1.00;;;19.50;92.20;;;;;;5072172;28;20029;-73
2023/07/26 03:59:07;;;;;;;3.47;0.95;;;19.60;92.40;;;;;;5072517;28;20036;-73
2023/07/26 04:01:33;;;;;;;5.43;1.02;;;19.50;92.20;;;;;;5054328;28;20020;-73
2023/07/26 04:03:59;;;;;;;2.00;0.95;;;19.60;92.40;;;;;;5072196;28;20028;-73
2023/07/26 04:06:24;;;;;;;1.88;0.90;;;19.50;92.60;;;;;;5071904;28;20386;-73
2023/07/26 04:08:50;;;;;;;2.20;0.90;;;19.50;92.70;;;;;;5072051;28;20033;-73
2023/07/26 04:11:16;;;;;;;4.15;1.10;;;19.60;92.40;;;;;;5072196;28;20024;-73
2023/07/26 04:13:42;;;;;;;2.38;0.80;;;19.60;92.00;;;;;;5072142;28;20032;-72
2023/07/26 04:16:15;;;;;;;1.40;0.80;;;19.60;91.80;;;;;;5072162;28;20025;-72
2023/07/26 04:18:40;;;;;;;4.13;0.90;;;19.60;91.30;;;;;;5072467;28;20020;-72
2023/07/26 04:21:06;;;;;;;4.10;1.10;;;19.60;91.20;;;;;;5072331;28;20104;-73
2023/07/26 04:23:32;;;;;;;1.63;0.93;;;19.60;91.40;;;;;;5072199;28;20075;-72
2023/07/26 04:25:58;;;;;;;1.95;1.00;;;19.60;91.70;;;;;;5054173;28;20545;-73
2023/07/26 04:28:23;;;;;;;4.35;1.30;;;19.50;91.80;;;;;;5072081;28;20035;-73
2023/07/26 04:30:49;;;;;;;3.38;0.93;;;19.60;92.30;;;;;;5072046;28;20020;-73
2023/07/26 04:33:15;;;;;;;1.65;0.85;;;19.50;92.50;;;;;;5071936;28;20036;-73
2023/07/26 04:35:41;;;;;;;1.30;0.90;;;19.50;92.20;;;;;;5071763;28;20017;-73
2023/07/26 04:38:06;;;;;;;2.65;0.80;;;19.50;91.40;;;;;;5074758;28;20078;-72
2023/07/26 04:40:35;;;;;;;1.52;0.85;;;19.50;91.20;;;;;;5076348;28;20474;-73
2023/07/26 04:43:02;;;;;;;1.42;0.80;;;19.50;91.30;;;;;;5031721;28;20514;-73
2023/07/26 04:45:27;;;;;;;1.17;0.90;;;19.50;91.40;;;;;;5031943;28;20026;-73
2023/07/26 04:47:53;;;;;;;1.60;0.75;;;19.50;91.60;;;;;;5032390;28;20022;-73
2023/07/26 04:50:19;;;;;;;3.60;0.80;;;19.50;91.70;;;;;;5032119;28;20033;-72
2023/07/26 04:52:45;;;;;;;1.20;0.80;;;19.50;91.20;;;;;;5032096;28;20046;-73
2023/07/26 04:55:10;;;;;;;1.27;0.80;;;19.50;91.10;;;;;;5032075;28;20025;-73
2023/07/26 04:57:39;;;;;;;2.50;0.73;;;19.50;91.50;;;;;;5031956;28;20025;-72
2023/07/26 05:00:07;;;;;;;4.30;0.90;;;19.50;91.50;;;;;;5031571;28;20507;-73
2023/07/26 05:02:32;;;;;;;4.40;0.90;;;19.50;91.70;;;;;;5045459;28;20025;-73
2023/07/26 05:04:58;;;;;;;2.97;0.98;;;19.60;91.60;;;;;;5052531;28;20032;-73
2023/07/26 05:07:24;;;;;;;1.05;0.88;;;19.50;91.40;;;;;;5055231;28;20031;-74
2023/07/26 05:09:50;;;;;;;3.03;0.90;;;19.60;91.50;;;;;;5055188;28;20096;-73
2023/07/26 05:12:15;;;;;;;2.10;1.00;;;19.60;91.60;;;;;;5054686;28;20036;-73
2023/07/26 05:14:43;;;;;;;2.67;0.80;;;19.60;91.80;;;;;;5054986;28;20032;-73
2023/07/26 05:17:08;;;;;;;3.38;0.88;;;19.60;92.30;;;;;;5055589;28;20033;-73
2023/07/26 05:19:34;;;;;;;2.05;1.05;;;19.60;92.70;;;;;;5055068;28;20392;-73
2023/07/26 05:22:00;;;;;;;2.03;1.20;;;19.60;92.50;;;;;;5055121;28;20057;-73
2023/07/26 05:24:25;;;;;;;3.33;0.95;;;19.60;92.70;;;;;;5054823;28;20100;-74
2023/07/26 05:26:51;;;;;;;1.55;1.13;;;19.60;92.50;;;;;;5055561;28;20056;-74
2023/07/26 05:29:17;;;;;;;1.58;1.00;;;19.70;92.70;;;;;;5054865;28;20101;-74
2023/07/26 05:31:43;;;;;;;2.72;1.05;;;19.70;92.70;;;;;;5054733;28;20048;-75
2023/07/26 05:34:08;;;;;;;4.32;0.90;;;19.70;92.60;;;;;;5054701;28;20024;-74
2023/07/26 05:36:34;;;;;;;3.95;1.25;;;19.70;92.40;;;;;;5054732;28;20029;-74
2023/07/26 05:39:00;;;;;;;5.15;1.10;;;19.80;92.80;;;;;;5054557;28;20060;-75
2023/07/26 05:41:28;;;;;;;0.73;0.73;;;19.80;93.00;;;;;;5068552;28;20497;-75
2023/07/26 05:43:54;;;;;;;4.10;2.00;;;19.80;93.00;;;;;;5094846;28;20065;-75
2023/07/26 05:46:19;;;;;;;1.73;0.80;;;19.80;92.90;;;;;;5094959;28;20035;-75
2023/07/26 05:48:45;;;;;;;2.13;1.00;;;19.80;92.80;;;;;;5094742;28;20189;-75
2023/07/26 05:51:11;;;;;;;4.20;1.02;;;19.90;92.90;;;;;;5094852;28;20028;-75
2023/07/26 05:53:36;;;;;;;2.20;0.98;;;19.90;93.20;;;;;;5094644;28;20032;-75
2023/07/26 05:56:02;;;;;;;4.78;1.00;;;19.90;93.20;;;;;;5095045;28;20030;-74
2023/07/26 05:58:28;;;;;;;4.97;1.15;;;20.00;93.30;;;;;;5076635;28;20024;-74
2023/07/26 06:00:54;;;;;;;2.28;1.05;;;20.00;93.30;;;;;;5094877;28;20137;-75
2023/07/26 06:03:19;;;;;;;1.45;0.70;;;20.00;93.20;;;;;;5094400;28;20043;-74
2023/07/26 06:05:45;;;;;;;5.75;0.93;;;20.10;92.90;;;;;;5094581;28;20055;-75
2023/07/26 06:08:13;;;;;;;1.83;0.70;;;20.10;92.50;;;;;;5094711;28;20046;-75
2023/07/26 06:10:40;;;;;;;2.05;0.95;;;20.20;92.40;;;;;;5094039;28;20073;-74
2023/07/26 06:13:05;;;;;;;2.00;0.93;;;20.20;92.40;;;;;;5092908;28;20044;-75
2023/07/26 06:15:31;;;;;;;2.63;0.90;;;20.20;92.30;;;;;;5094550;28;20073;-74
2023/07/26 06:17:57;;;;;;;1.08;0.65;;;20.30;92.00;;;;;;5094547;28;20626;-72
2023/07/26 06:20:23;;;;;;;1.48;0.98;;;20.30;91.60;;;;;;5093452;28;20368;-72
2023/07/26 06:22:48;;;;;;;4.47;0.88;;;20.30;91.30;;;;;;5093604;28;20039;-72
2023/07/26 06:25:14;;;;;;;1.30;0.57;;;20.40;91.50;;;;;;5093744;28;20035;-73
2023/07/26 06:27:40;;;;;;;2.55;0.70;;;20.40;91.50;;;;;;5093889;28;20059;-73
2023/07/26 06:30:07;;;;;;;2.67;0.90;;;20.40;91.10;;;;;;5093261;28;20110;-73
2023/07/26 06:32:32;;;;;;;2.78;0.90;;;20.40;90.80;;;;;;5092479;28;20538;-75
2023/07/26 06:34:58;;;;;;;1.23;0.70;;;20.50;90.40;;;;;;5076792;28;20119;-73
2023/07/26 06:37:24;;;;;;;2.05;0.70;;;20.50;90.00;;;;;;5072973;28;20210;-75
2023/07/26 06:39:50;;;;;;;3.00;0.52;;;20.60;88.10;;;;;;5081156;28;20028;-74
2023/07/26 06:42:15;;;;;;;2.80;0.60;;;20.60;86.60;;;;;;5093317;28;20060;-75
2023/07/26 06:44:41;;;;;;;1.35;0.80;;;20.70;87.20;;;;;;5092903;28;20020;-75
2023/07/26 06:47:07;;;;;;;4.97;1.02;;;20.70;88.30;;;;;;5077886;28;20421;-72
2023/07/26 06:49:34;;;;;;;3.67;0.70;;;20.70;89.00;;;;;;5072770;28;20085;-74
2023/07/26 06:51:59;;;;;;;1.33;0.75;;;20.80;88.90;;;;;;5072795;28;20544;-72
2023/07/26 06:54:25;;;;;;;1.23;0.60;;;20.80;88.00;;;;;;5072926;28;20107;-72
2023/07/26 06:56:51;;;;;;;1.10;0.70;;;20.90;87.30;;;;;;5072103;28;20024;-75
2023/07/26 06:59:17;;;;;;;1.25;0.55;;;20.90;86.90;;;;;;5072222;28;20103;-75
2023/07/26 07:01:43;;;;;;;1.55;0.68;;;20.90;86.40;;;;;;5072731;28;20035;-75
2023/07/26 07:04:08;;;;;;;0.63;0.60;;;21.00;86.00;;;;;;5072766;28;20024;-74
2023/07/26 07:06:34;;;;;;;1.90;0.63;;;21.00;86.20;;;;;;5072698;28;20029;-74
2023/07/26 07:09:00;;;;;;;1.15;0.55;;;21.10;87.10;;;;;;5072331;28;20024;-73
2023/07/26 07:11:25;;;;;;;0.88;0.80;;;21.10;86.80;;;;;;5072290;28;20048;-74
2023/07/26 07:13:51;;;;;;;0.82;0.63;;;21.10;86.20;;;;;;5054530;28;20090;-75
2023/07/26 07:16:17;;;;;;;2.55;0.60;;;21.20;86.00;;;;;;5072060;28;20028;-75
2023/07/26 07:18:43;;;;;;;1.30;0.60;;;21.20;85.70;;;;;;5054485;28;20023;-74
2023/07/26 07:21:09;;;;;;;2.65;0.90;;;21.20;86.00;;;;;;5072001;28;20426;-74
2023/07/26 07:23:36;;;;;;;0.70;0.70;;;21.20;86.90;;;;;;5072392;28;20025;-74
2023/07/26 07:26:02;;;;;;;0.80;0.60;;;21.30;85.10;;;;;;5053951;28;20043;-73
2023/07/26 07:28:27;;;;;;;1.02;0.70;;;21.40;83.70;;;;;;5071520;28;20021;-74
2023/07/26 07:30:53;;;;;;;0.88;0.60;;;21.40;83.50;;;;;;5071873;28;20375;-75
2023/07/26 07:33:19;;;;;;;2.20;0.85;;;21.40;83.70;;;;;;5077795;28;20035;-74
2023/07/26 07:35:45;;;;;;;3.65;0.90;;;21.50;84.20;;;;;;5074197;28;20031;-74
2023/07/26 07:38:10;;;;;;;2.78;0.70;;;21.50;84.20;;;;;;5092022;28;20038;-75
2023/07/26 07:40:37;;;;;;;0.70;0.60;;;21.60;82.80;;;;;;5092450;28;20095;-76
2023/07/26 07:43:03;;;;;;;0.98;0.80;;;21.60;82.60;;;;;;5078313;28;20112;-76
2023/07/26 07:45:28;;;;;;;0.98;0.80;;;21.70;82.90;;;;;;5072608;28;20445;-75
2023/07/26 07:47:54;;;;;;;1.02;0.80;;;21.70;80.90;;;;;;5072624;28;20424;-76
2023/07/26 07:50:20;;;;;;;2.72;0.77;;;21.70;80.90;;;;;;5072428;28;20025;-76
2023/07/26 07:52:46;;;;;;;2.25;1.27;;;21.70;82.00;;;;;;5072007;28;20379;-76
2023/07/26 07:55:11;;;;;;;1.17;0.90;;;21.80;82.90;;;;;;5072298;28;20075;-77
2023/07/26 07:57:37;;;;;;;0.90;0.70;;;21.90;82.90;;;;;;5072342;28;20028;-76
2023/07/26 08:00:03;;;;;;;2.38;0.60;;;21.90;83.00;;;;;;5072461;28;20063;-76
2023/07/26 08:02:29;;;;;;;1.50;0.70;;;22.00;82.30;;;;;;5072461;28;20020;-76
2023/07/26 08:04:55;;;;;;;0.80;0.60;;;22.00;81.40;;;;;;5072052;28;20043;-76
2023/07/26 08:07:20;;;;;;;2.90;0.73;;;22.10;80.10;;;;;;5072081;28;20074;-75
2023/07/26 08:09:46;;;;;;;1.27;0.75;;;22.10;79.40;;;;;;5072096;28;20052;-76
2023/07/26 08:12:12;;;;;;;2.63;0.70;;;22.10;78.90;;;;;;5072041;28;20169;-76
2023/07/26 08:14:37;;;;;;;1.77;1.27;;;22.10;78.90;;;;;;5072365;28;20028;-75
2023/07/26 08:17:04;;;;;;;3.08;0.57;;;22.10;79.40;;;;;;5072231;28;20021;-75
2023/07/26 08:19:30;;;;;;;2.65;0.70;;;22.10;78.90;;;;;;5072134;28;20016;-76
2023/07/26 08:21:55;;;;;;;2.20;0.70;;;22.20;78.50;;;;;;5072073;28;20489;-75
2023/07/26 08:24:21;;;;;;;1.30;0.60;;;22.20;79.40;;;;;;5072160;28;20025;-75
2023/07/26 08:26:47;;;;;;;5.28;0.77;;;22.30;80.50;;;;;;5072083;28;20028;-75
2023/07/26 08:29:13;;;;;;;1.10;0.70;;;22.30;81.40;;;;;;5071335;28;20024;-75
2023/07/26 08:31:39;;;;;;;2.42;0.60;;;22.30;81.10;;;;;;5070491;28;20032;-75
2023/07/26 08:34:05;;;;;;;2.20;0.73;;;22.40;80.40;;;;;;5071030;28;20364;-75
2023/07/26 08:36:30;;;;;;;1.13;0.73;;;22.50;80.50;;;;;;5071845;28;20035;-72
2023/07/26 08:38:56;;;;;;;1.50;1.02;;;22.50;79.60;;;;;;5071935;28;20028;-72
2023/07/26 08:41:22;;;;;;;1.27;0.85;;;22.60;79.50;;;;;;5075118;28;20158;-74
2023/07/26 08:43:52;;;;;;;0.95;0.60;;;22.60;79.10;;;;;;5076054;28;20078;-73
2023/07/26 08:46:18;;;;;;;1.15;0.70;;;22.70;78.40;;;;;;5075438;28;20052;-74
2023/07/26 08:48:44;;;;;;;0.93;0.70;;;22.70;77.80;;;;;;5076154;28;20102;-74
2023/07/26 08:51:11;;;;;;;0.70;0.68;;;22.80;78.00;;;;;;5075959;28;20027;-76
2023/07/26 08:53:39;;;;;;;2.47;0.80;;;22.90;78.10;;;;;;5076046;28;20107;-75
2023/07/26 08:56:06;;;;;;;0.80;0.80;;;22.90;78.20;;;;;;5075755;28;20025;-75
2023/07/26 08:58:31;;;;;;;1.08;0.80;;;23.00;78.60;;;;;;5075730;28;20108;-73
2023/07/26 09:00:58;;;;;;;1.42;0.82;;;23.00;77.90;;;;;;5075764;28;20099;-73
2023/07/26 09:03:24;;;;;;;2.45;0.90;;;23.10;78.20;;;;;;5075804;28;20051;-73
2023/07/26 09:06:08;;;;;;;1.30;0.70;;;23.10;78.20;;;;;;5075563;28;20052;-71
2023/07/26 09:08:35;;;;;;;1.00;0.70;;;23.20;77.20;;;;;;5075180;28;20611;-73
2023/07/26 09:11:03;;;;;;;1.42;0.82;;;23.20;76.80;;;;;;5075465;28;20069;-74
2023/07/26 09:13:29;;;;;;;1.65;0.90;;;23.30;75.40;;;;;;5075496;28;20028;-75
2023/07/26 09:15:55;;;;;;;1.58;0.80;;;23.30;75.30;;;;;;5075492;28;20029;-74
2023/07/26 09:18:20;;;;;;;1.33;0.73;;;23.40;74.20;;;;;;5075432;28;20025;-73
2023/07/26 09:20:46;;;;;;;2.33;0.70;;;23.40;73.70;;;;;;5075560;28;20024;-74
2023/07/26 09:23:13;;;;;;;3.50;0.73;;;23.40;73.50;;;;;;5075332;28;20028;-75
2023/07/26 09:25:44;;;;;;;2.25;0.70;;;23.40;72.70;;;;;;5075179;28;20028;-75
2023/07/26 09:28:12;;;;;;;0.63;0.60;;;23.50;72.90;;;;;;5057331;28;20433;-73
2023/07/26 09:30:39;;;;;;;0.70;0.60;;;23.50;71.10;;;;;;5075121;28;20032;-74
2023/07/26 09:33:07;;;;;;;4.97;0.82;;;23.60;70.10;;;;;;5074760;28;20563;-73
2023/07/26 09:35:48;;;;;;;2.00;0.77;;;23.60;70.40;;;;;;5074781;28;20532;-75
2023/07/26 09:38:16;;;;;;;5.07;1.02;;;23.60;70.40;;;;;;5074800;28;20031;-75
2023/07/26 09:40:42;;;;;;;1.10;0.70;;;23.70;69.10;;;;;;5074719;28;20035;-74
2023/07/26 09:43:08;;;;;;;1.33;0.80;;;23.70;68.80;;;;;;5075093;28;20021;-73
2023/07/26 09:45:36;;;;;;;0.90;0.60;;;23.70;68.30;;;;;;5074768;28;20040;-72
2023/07/26 09:48:10;;;;;;;1.17;0.60;;;23.80;67.20;;;;;;5074942;28;20073;-74
2023/07/26 09:50:37;;;;;;;0.88;0.60;;;23.80;67.80;;;;;;5074364;28;20043;-75
2023/07/26 09:53:05;;;;;;;1.17;0.60;;;23.90;67.10;;;;;;5074708;28;20021;-75
2023/07/26 09:55:31;;;;;;;0.60;0.60;;;23.90;68.20;;;;;;5074684;28;20028;-75
2023/07/26 09:57:58;;;;;;;0.70;0.50;;;23.90;69.00;;;;;;5074392;28;20029;-74
2023/07/26 10:00:26;;;;;;;0.70;0.60;;;24.00;69.30;;;;;;5074521;28;20390;-76
2023/07/26 10:02:58;;;;;;;1.83;0.80;;;24.10;69.30;;;;;;5074733;28;20067;-75
2023/07/26 10:05:25;;;;;;;;;;;24.10;67.40;;;;;;5057189;28;20028;-75
2023/07/26 10:07:52;;;;;;;0.60;0.60;;;24.20;67.90;;;;;;5074427;28;20278;-75
2023/07/26 10:10:19;;;;;;;0.95;0.60;;;24.20;67.60;;;;;;5074108;28;20024;-75
2023/07/26 10:12:46;;;;;;;0.73;0.52;;;24.20;67.00;;;;;;5074418;28;20066;-74
2023/07/26 10:15:13;;;;;;;1.08;0.57;;;24.30;67.00;;;;;;5074332;28;20723;-75
2023/07/26 10:17:42;;;;;;;1.10;0.60;;;24.30;66.50;;;;;;5074238;28;20501;-76
2023/07/26 10:20:09;;;;;;;0.70;0.65;;;24.40;65.50;;;;;;5074115;28;20056;-75
2023/07/26 10:22:36;;;;;;;2.10;0.60;;;24.50;65.60;;;;;;5074499;28;20021;-74
2023/07/26 10:25:02;;;;;;;0.80;0.47;;;24.50;66.40;;;;;;5074196;28;20074;-75
2023/07/26 10:27:28;;;;;;;0.90;0.57;;;24.60;66.20;;;;;;5074025;28;20025;-74
2023/07/26 10:29:54;;;;;;;0.73;0.50;;;24.70;66.00;;;;;;5074158;28;20051;-75
2023/07/26 10:32:20;;;;;;;0.63;0.40;;;24.70;65.20;;;;;;5073846;28;20073;-75
2023/07/26 10:34:54;;;;;;;0.82;0.40;;;24.70;63.30;;;;;;5074187;28;20082;-75
2023/07/26 10:37:19;;;;;;;0.40;0.40;;;24.80;63.60;;;;;;5074005;28;20051;-75
2023/07/26 10:39:46;;;;;;;0.77;0.60;;;24.80;63.00;;;;;;5073758;28;20024;-75
2023/07/26 10:42:41;;;;;;;0.95;0.60;;;24.80;64.50;;;;;;5073599;28;20055;-76
2023/07/26 10:45:36;;;;;;;0.80;0.60;;;24.90;64.10;;;;;;5052245;28;20123;-75
2023/07/26 10:48:02;;;;;;;1.25;0.60;;;25.00;65.50;;;;;;5073551;28;20056;-75
2023/07/26 10:50:28;;;;;;;1.13;0.70;;;25.00;64.70;;;;;;5073650;28;20078;-74
2023/07/26 10:52:53;;;;;;;0.77;0.50;;;25.10;65.40;;;;;;5073428;28;20037;-75
2023/07/26 10:55:30;;;;;;;0.60;0.50;;;25.10;65.10;;;;;;5073342;28;20048;-75
2023/07/26 10:57:58;;;;;;;0.52;0.40;;;25.20;66.00;;;;;;5073538;28;20090;-75
2023/07/26 11:00:34;;;;;;;1.23;0.50;;;25.20;67.00;;;;;;5073454;28;20051;-75
2023/07/26 11:03:01;;;;;;;0.77;0.50;;;25.20;65.40;;;;;;5072620;28;20024;-75
2023/07/26 11:05:29;;;;;;;1.27;0.70;;;25.20;64.60;;;;;;5073337;28;20024;-74
2023/07/26 11:08:03;;;;;;;0.70;0.60;;;25.20;62.90;;;;;;5073122;28;20023;-75
2023/07/26 11:10:33;;;;;;;0.93;0.50;;;25.20;63.10;;;;;;5073193;28;20055;-76
2023/07/26 11:13:17;;;;;;;1.15;0.60;;;25.10;63.30;;;;;;5072925;28;20043;-73
2023/07/26 11:15:45;;;;;;;0.98;0.43;;;25.00;65.20;;;;;;5055304;28;20025;-75
2023/07/26 11:18:11;;;;;;;0.70;0.60;;;25.00;65.40;;;;;;5072892;28;20021;-74
2023/07/26 11:20:52;;;;;;;2.88;0.80;;;24.90;64.50;;;;;;5073774;28;20104;-72
2023/07/26 11:23:20;;;;;;;0.57;0.40;;;24.80;63.80;;;;;;5072947;28;20032;-72
2023/07/26 11:25:54;;;;;;;0.80;0.60;;;24.70;65.20;;;;;;5073171;28;20020;-72
2023/07/26 11:28:21;;;;;;;0.82;0.50;;;24.70;66.60;;;;;;5073193;28;20070;-72
2023/07/26 11:30:54;;;;;;;2.08;0.73;;;24.60;66.50;;;;;;5072945;28;20158;-71
2023/07/26 11:33:39;;;;;;;1.48;0.63;;;24.60;66.40;;;;;;5054886;28;20043;-72
2023/07/26 11:36:07;;;;;;;0.65;0.60;;;24.50;66.20;;;;;;5073029;28;20115;-72
2023/07/26 11:38:33;;;;;;;1.25;0.68;;;24.50;67.20;;;;;;5073085;28;20142;-74
2023/07/26 11:41:00;;;;;;;0.98;0.80;;;24.40;69.00;;;;;;5072760;28;20094;-74
2023/07/26 11:43:27;;;;;;;1.48;0.80;;;24.40;68.50;;;;;;5072653;28;20032;-74
2023/07/26 11:45:55;;;;;;;0.95;0.57;;;24.40;68.00;;;;;;5072637;28;20375;-74
2023/07/26 11:48:21;;;;;;;3.10;0.90;;;24.40;68.00;;;;;;5072967;28;20024;-73
2023/07/26 11:50:47;;;;;;;3.03;1.00;;;24.30;68.40;;;;;;5072991;28;20021;-75
2023/07/26 11:53:15;;;;;;;1.65;0.95;;;24.30;68.50;;;;;;5072684;28;20526;-74
2023/07/26 11:55:43;;;;;;;2.80;0.80;;;24.30;68.30;;;;;;5072799;28;20027;-72
2023/07/26 11:58:11;;;;;;;2.03;1.10;;;24.30;68.50;;;;;;5072776;28;20024;-72
2023/07/26 12:00:40;;;;;;;2.50;0.82;;;24.20;69.20;;;;;;5072709;28;20021;-72
2023/07/26 12:03:07;;;;;;;2.35;0.63;;;24.20;70.00;;;;;;5072787;28;20471;-75
2023/07/26 12:05:33;;;;;;;2.30;0.75;;;24.10;70.40;;;;;;5072708;28;20027;-74
2023/07/26 12:08:04;;;;;;;1.65;0.80;;;24.10;71.20;;;;;;5072413;28;20501;-74
2023/07/26 12:10:42;;;;;;;1.60;0.80;;;24.00;71.10;;;;;;5054243;28;20033;-75
2023/07/26 12:13:21;;;;;;;1.52;0.80;;;24.00;71.50;;;;;;5072532;28;20037;-75
2023/07/26 12:15:52;;;;;;;1.70;0.90;;;24.00;72.50;;;;;;5076556;28;20512;-74
2023/07/26 12:18:20;;;;;;;1.63;1.00;;;23.90;72.80;;;;;;5076692;28;20028;-72
2023/07/26 12:20:57;;;;;;;2.53;0.93;;;23.90;73.20;;;;;;5058264;28;20426;-75
2023/07/26 12:23:23;;;;;;;2.45;0.75;;;23.80;72.30;;;;;;5076328;28;20032;-75
2023/07/26 12:26:00;;;;;;;1.70;0.98;;;23.80;71.10;;;;;;5076141;28;20119;-75
2023/07/26 12:28:25;;;;;;;2.88;0.80;;;23.70;69.90;;;;;;5076411;28;20035;-73
2023/07/26 12:30:58;;;;;;;2.10;0.80;;;23.70;68.80;;;;;;5076261;28;20028;-73
2023/07/26 12:33:25;;;;;;;1.30;0.70;;;23.70;68.60;;;;;;5076109;28;20029;-76
2023/07/26 12:35:55;;;;;;;2.70;0.80;;;23.70;68.40;;;;;;5076050;28;20028;-75
2023/07/26 12:38:22;;;;;;;5.40;0.70;;;23.70;68.70;;;;;;5076363;28;20044;-75
2023/07/26 12:40:49;;;;;;;3.20;0.80;;;23.70;69.70;;;;;;5075758;28;20033;-75
2023/07/26 12:43:28;;;;;;;1.30;0.65;;;23.60;70.30;;;;;;5076043;28;20025;-75
2023/07/26 12:45:55;;;;;;;1.10;0.70;;;23.60;71.00;;;;;;5075856;28;20025;-74
2023/07/26 12:48:22;;;;;;;5.00;0.88;;;23.60;70.50;;;;;;5075926;28;20501;-74